Time,TemperatureF,DewpointF,PressureIn,WindDirection,WindDirectionDegrees,WindSpeedMPH,WindSpeedGustMPH,Humidity,HourlyPrecipIn,Conditions,Clouds,dailyrainin,SoftwareType,DateUTC
2013-02-04 00:00:00,28.1,12.8,30.01,NNW,327,4.0,16.0,52,0.00,,---,0.00,VWS V14.01,2013-02-04 05:00:00,
2013-02-04 00:01:00,28.1,12.8,30.01,WNW,292,5.0,7.0,52,0.00,,---,0.00,VWS V14.01,2013-02-04 05:01:00,
2013-02-04 00:02:00,28.1,12.8,30.01,WSW,257,1.0,7.0,52,0.00,,---,0.00,VWS V14.01,2013-02-04 05:02:00,
2013-02-04 00:07:00,28.0,13.1,30.01,West,281,4.0,7.0,53,0.00,,---,0.00,VWS V14.01,2013-02-04 05:07:00,
2013-02-04 00:12:00,27.9,13.0,30.01,WSW,255,4.0,15.0,53,0.00,,---,0.00,VWS V14.01,2013-02-04 05:12:00,
2013-02-04 00:17:00,27.9,13.4,30.01,WNW,298,6.0,15.0,54,0.00,,---,0.00,VWS V14.01,2013-02-04 05:17:00,
2013-02-04 00:22:00,27.8,13.3,30.01,WSW,252,6.0,15.0,54,0.00,,---,0.00,VWS V14.01,2013-02-04 05:22:00,
2013-02-04 00:27:00,27.8,12.9,30.01,West,275,3.0,16.0,53,0.00,,---,0.00,VWS V14.01,2013-02-04 05:27:00,
2013-02-04 00:32:00,27.7,13.2,30.01,WNW,296,6.0,10.0,54,0.00,,---,0.00,VWS V14.01,2013-02-04 05:32:00,
2013-02-04 00:37:00,27.6,13.1,30.01,West,267,5.0,12.0,54,0.00,,---,0.00,VWS V14.01,2013-02-04 05:37:00,
2013-02-04 00:42:00,27.5,13.1,30.00,NW,309,4.0,14.0,54,0.00,,---,0.00,VWS V14.01,2013-02-04 05:42:00,
2013-02-04 00:47:00,27.4,13.4,30.00,WNW,289,4.0,14.0,55,0.00,,---,0.00,VWS V14.01,2013-02-04 05:47:00,
2013-02-04 00:52:00,27.3,13.3,30.00,WNW,294,4.0,14.0,55,0.00,,---,0.00,VWS V14.01,2013-02-04 05:52:00,
2013-02-04 00:57:00,27.1,13.1,30.00,West,277,5.0,14.0,55,0.00,,---,0.00,VWS V14.01,2013-02-04 05:57:00,
2013-02-04 01:02:00,27.0,13.0,30.00,West,277,3.0,13.0,55,0.00,,---,0.00,VWS V14.01,2013-02-04 06:02:00,
2013-02-04 01:07:00,27.1,13.1,30.00,WSW,249,4.0,16.0,55,0.00,,---,0.00,VWS V14.01,2013-02-04 06:07:00,
2013-02-04 01:12:00,27.2,13.2,30.00,West,270,4.0,16.0,55,0.00,,---,0.00,VWS V14.01,2013-02-04 06:12:00,
2013-02-04 01:17:00,27.1,13.1,30.00,West,261,5.0,16.0,55,0.00,,---,0.00,VWS V14.01,2013-02-04 06:17:00,
2013-02-04 01:22:00,27.0,13.0,30.00,WSW,252,5.0,16.0,55,0.00,,---,0.00,VWS V14.01,2013-02-04 06:22:00,
2013-02-04 01:27:00,26.8,13.2,30.00,WNW,301,5.0,16.0,56,0.00,,---,0.00,VWS V14.01,2013-02-04 06:27:00,
2013-02-04 01:32:00,26.8,12.8,30.00,WSW,248,6.0,7.0,55,0.00,,---,0.00,VWS V14.01,2013-02-04 06:32:00,
2013-02-04 01:37:00,26.9,13.3,30.00,WSW,250,6.0,13.0,56,0.00,,---,0.00,VWS V14.01,2013-02-04 06:37:00,
2013-02-04 01:42:00,26.9,12.9,30.00,SW,236,3.0,13.0,55,0.00,,---,0.00,VWS V14.01,2013-02-04 06:42:00,
2013-02-04 01:47:00,26.7,13.1,30.01,West,268,5.0,13.0,56,0.00,,---,0.00,VWS V14.01,2013-02-04 06:47:00,
2013-02-04 01:52:00,26.8,12.8,30.01,West,269,4.0,13.0,55,0.00,,---,0.00,VWS V14.01,2013-02-04 06:52:00,
2013-02-04 01:57:00,26.9,12.5,30.01,WNW,294,6.0,19.0,54,0.00,,---,0.00,VWS V14.01,2013-02-04 06:57:00,
2013-02-04 02:02:00,26.9,12.9,30.01,West,273,1.0,5.0,55,0.00,,---,0.00,VWS V14.01,2013-02-04 07:02:00,
2013-02-04 02:07:00,26.7,12.7,30.01,WSW,237,3.0,11.0,55,0.00,,---,0.00,VWS V14.01,2013-02-04 07:07:00,
2013-02-04 02:12:00,26.7,12.7,30.01,WSW,256,3.0,11.0,55,0.00,,---,0.00,VWS V14.01,2013-02-04 07:12:00,
2013-02-04 02:17:00,26.6,12.6,30.01,WNW,290,2.0,11.0,55,0.00,,---,0.00,VWS V14.01,2013-02-04 07:17:00,
2013-02-04 02:22:00,26.5,12.5,30.01,West,273,6.0,11.0,55,0.00,,---,0.00,VWS V14.01,2013-02-04 07:22:00,
2013-02-04 02:27:00,26.6,14.2,30.01,SW,236,3.0,11.0,59,0.00,,---,0.00,VWS V14.01,2013-02-04 07:27:00,
2013-02-04 02:32:00,26.6,12.2,30.01,WSW,256,0.0,6.0,54,0.00,,---,0.00,VWS V14.01,2013-02-04 07:32:00,
2013-02-04 02:37:00,26.5,12.1,30.01,WNW,283,1.0,6.0,54,0.00,,---,0.00,VWS V14.01,2013-02-04 07:37:00,
2013-02-04 02:42:00,26.3,12.3,30.02,WSW,250,4.0,6.0,55,0.00,,---,0.00,VWS V14.01,2013-02-04 07:42:00,
2013-02-04 02:47:00,26.1,12.6,30.02,WNW,288,3.0,9.0,56,0.00,,---,0.00,VWS V14.01,2013-02-04 07:47:00,
2013-02-04 02:52:00,26.1,12.2,30.02,WSW,241,3.0,10.0,55,0.00,,---,0.00,VWS V14.01,2013-02-04 07:52:00,
2013-02-04 02:57:00,26.1,12.6,30.02,WSW,238,3.0,10.0,56,0.00,,---,0.00,VWS V14.01,2013-02-04 07:57:00,
2013-02-04 03:02:00,25.9,12.4,30.02,WSW,256,2.0,7.0,56,0.00,,---,0.00,VWS V14.01,2013-02-04 08:02:00,
2013-02-04 03:07:00,25.8,12.3,30.02,WSW,238,1.0,7.0,56,0.00,,---,0.00,VWS V14.01,2013-02-04 08:07:00,
2013-02-04 03:12:00,25.7,12.2,30.01,WSW,257,4.0,10.0,56,0.00,,---,0.00,VWS V14.01,2013-02-04 08:12:00,
2013-02-04 03:17:00,25.7,12.2,30.01,West,259,0.0,10.0,56,0.00,,---,0.00,VWS V14.01,2013-02-04 08:17:00,
2013-02-04 03:22:00,25.7,12.2,30.02,WSW,252,4.0,10.0,56,0.00,,---,0.00,VWS V14.01,2013-02-04 08:22:00,
2013-02-04 03:27:00,25.6,12.1,30.01,WSW,248,5.0,10.0,56,0.00,,---,0.00,VWS V14.01,2013-02-04 08:27:00,
2013-02-04 03:31:00,25.6,11.7,30.01,SW,236,1.0,3.0,55,0.00,,---,0.00,VWS V14.01,2013-02-04 08:31:00,
2013-02-04 03:36:00,25.6,12.1,30.02,SW,236,0.0,3.0,56,0.00,,---,0.00,VWS V14.01,2013-02-04 08:36:00,
2013-02-04 03:41:00,25.4,11.9,30.02,SW,236,0.0,3.0,56,0.00,,---,0.00,VWS V14.01,2013-02-04 08:41:00,
2013-02-04 03:46:00,25.0,11.9,30.02,SW,236,1.0,3.0,57,0.00,,---,0.00,VWS V14.01,2013-02-04 08:46:00,
2013-02-04 03:51:00,24.6,12.3,30.02,SW,236,0.0,3.0,59,0.00,,---,0.00,VWS V14.01,2013-02-04 08:51:00,
2013-02-04 03:56:00,24.1,12.2,30.02,SW,236,3.0,3.0,60,0.00,,---,0.00,VWS V14.01,2013-02-04 08:56:00,
2013-02-04 04:01:00,23.8,12.3,30.02,SW,236,1.0,2.0,61,0.00,,---,0.00,VWS V14.01,2013-02-04 09:01:00,
2013-02-04 04:06:00,23.6,12.1,30.02,SW,229,3.0,4.0,61,0.00,,---,0.00,VWS V14.01,2013-02-04 09:06:00,
2013-02-04 04:11:00,23.7,11.9,30.02,SW,229,2.0,4.0,60,0.00,,---,0.00,VWS V14.01,2013-02-04 09:11:00,
2013-02-04 04:16:00,23.8,12.3,30.01,SW,229,1.0,4.0,61,0.00,,---,0.00,VWS V14.01,2013-02-04 09:16:00,
2013-02-04 04:21:00,23.7,12.2,30.02,SW,229,0.0,4.0,61,0.00,,---,0.00,VWS V14.01,2013-02-04 09:21:00,
2013-02-04 04:26:00,23.5,12.0,30.02,SW,229,0.0,4.0,61,0.00,,---,0.00,VWS V14.01,2013-02-04 09:26:00,
2013-02-04 04:31:00,23.4,12.3,30.02,SW,229,0.0,1.0,62,0.00,,---,0.00,VWS V14.01,2013-02-04 09:31:00,
2013-02-04 04:36:00,23.2,12.1,30.02,SW,229,2.0,3.0,62,0.00,,---,0.00,VWS V14.01,2013-02-04 09:36:00,
2013-02-04 04:41:00,23.2,12.1,30.02,SW,229,0.0,4.0,62,0.00,,---,0.00,VWS V14.01,2013-02-04 09:41:00,
2013-02-04 04:46:00,23.3,12.2,30.02,SW,229,3.0,4.0,62,0.00,,---,0.00,VWS V14.01,2013-02-04 09:46:00,
2013-02-04 04:51:00,23.3,12.2,30.03,SW,229,0.0,4.0,62,0.00,,---,0.00,VWS V14.01,2013-02-04 09:51:00,
2013-02-04 04:56:00,23.0,12.3,30.03,SW,229,1.0,4.0,63,0.00,,---,0.00,VWS V14.01,2013-02-04 09:56:00,
2013-02-04 05:01:00,22.8,12.1,30.03,SW,229,0.0,1.0,63,0.00,,---,0.00,VWS V14.01,2013-02-04 10:01:00,
2013-02-04 05:06:00,22.7,12.4,30.03,SW,229,0.0,1.0,64,0.00,,---,0.00,VWS V14.01,2013-02-04 10:06:00,
2013-02-04 05:11:00,22.5,12.2,30.03,SW,229,0.0,1.0,64,0.00,,---,0.00,VWS V14.01,2013-02-04 10:11:00,
2013-02-04 05:16:00,22.2,11.9,30.04,SW,229,0.0,1.0,64,0.00,,---,0.00,VWS V14.01,2013-02-04 10:16:00,
2013-02-04 05:21:00,22.1,11.8,30.04,SW,229,0.0,1.0,64,0.00,,---,0.00,VWS V14.01,2013-02-04 10:21:00,
2013-02-04 05:26:00,22.0,12.1,30.04,SW,229,0.0,1.0,65,0.00,,---,0.00,VWS V14.01,2013-02-04 10:26:00,
2013-02-04 05:31:00,21.9,12.0,30.04,SW,229,0.0,0.0,65,0.00,,---,0.00,VWS V14.01,2013-02-04 10:31:00,
2013-02-04 05:36:00,21.7,11.8,30.04,SW,229,0.0,2.0,65,0.00,,---,0.00,VWS V14.01,2013-02-04 10:36:00,
2013-02-04 05:41:00,21.6,12.0,30.05,SW,229,0.0,2.0,66,0.00,,---,0.00,VWS V14.01,2013-02-04 10:41:00,
2013-02-04 05:46:00,21.5,11.9,30.05,SW,229,0.0,2.0,66,0.00,,---,0.00,VWS V14.01,2013-02-04 10:46:00,
2013-02-04 05:51:00,21.6,12.0,30.05,SW,228,0.0,3.0,66,0.00,,---,0.00,VWS V14.01,2013-02-04 10:51:00,
2013-02-04 05:56:00,21.6,12.0,30.06,SW,228,0.0,3.0,66,0.00,,---,0.00,VWS V14.01,2013-02-04 10:56:00,
2013-02-04 06:01:00,21.6,12.0,30.06,SW,227,1.0,3.0,66,0.00,,---,0.00,VWS V14.01,2013-02-04 11:01:00,
2013-02-04 06:06:00,21.6,12.0,30.05,SW,228,0.0,3.0,66,0.00,,---,0.00,VWS V14.01,2013-02-04 11:06:00,
2013-02-04 06:11:00,21.3,11.7,30.06,SW,228,0.0,3.0,66,0.00,,---,0.00,VWS V14.01,2013-02-04 11:11:00,
2013-02-04 06:16:00,21.0,12.1,30.06,SW,228,1.0,3.0,68,0.00,,---,0.00,VWS V14.01,2013-02-04 11:16:00,
2013-02-04 06:21:00,20.9,12.0,30.06,SW,228,2.0,3.0,68,0.00,,---,0.00,VWS V14.01,2013-02-04 11:21:00,
2013-02-04 06:26:00,21.0,12.1,30.07,SW,227,0.0,3.0,68,0.00,,---,0.00,VWS V14.01,2013-02-04 11:26:00,
2013-02-04 06:31:00,21.0,12.1,30.07,SW,228,0.0,1.0,68,0.00,,---,0.00,VWS V14.01,2013-02-04 11:31:00,
2013-02-04 06:36:00,21.1,11.9,30.07,SW,228,3.0,3.0,67,0.00,,---,0.00,VWS V14.01,2013-02-04 11:36:00,
2013-02-04 06:41:00,21.5,11.9,30.07,SW,227,2.0,4.0,66,0.00,,---,0.00,VWS V14.01,2013-02-04 11:41:00,
2013-02-04 06:46:00,21.8,11.9,30.07,SW,228,2.0,4.0,65,0.00,,---,0.00,VWS V14.01,2013-02-04 11:46:00,
2013-02-04 06:51:00,22.4,11.7,30.08,SW,219,3.0,5.0,63,0.00,,---,0.00,VWS V14.01,2013-02-04 11:51:00,
2013-02-04 06:56:00,22.9,11.8,30.08,SW,218,2.0,5.0,62,0.00,,---,0.00,VWS V14.01,2013-02-04 11:56:00,
2013-02-04 07:01:00,23.0,11.6,30.09,SW,218,2.0,3.0,61,0.00,,---,0.00,VWS V14.01,2013-02-04 12:01:00,
2013-02-04 07:06:00,23.1,11.7,30.09,SW,218,3.0,3.0,61,0.00,,---,0.00,VWS V14.01,2013-02-04 12:06:00,
2013-02-04 07:11:00,22.9,11.8,30.09,SW,218,2.0,5.0,62,0.00,,---,0.00,VWS V14.01,2013-02-04 12:11:00,
2013-02-04 07:16:00,22.7,12.0,30.09,SW,218,0.0,5.0,63,0.00,,---,0.00,VWS V14.01,2013-02-04 12:16:00,
2013-02-04 07:21:00,22.4,12.1,30.10,SW,218,1.0,5.0,64,0.00,,---,0.00,VWS V14.01,2013-02-04 12:21:00,
2013-02-04 07:26:00,22.0,12.1,30.09,SW,218,0.0,5.0,65,0.00,,---,0.00,VWS V14.01,2013-02-04 12:26:00,
2013-02-04 07:31:00,21.8,11.9,30.10,SW,218,0.0,0.0,65,0.00,,---,0.00,VWS V14.01,2013-02-04 12:31:00,
2013-02-04 07:36:00,21.7,12.1,30.10,SW,218,0.0,0.0,66,0.00,,---,0.00,VWS V14.01,2013-02-04 12:36:00,
2013-02-04 07:41:00,21.5,11.9,30.10,SW,218,0.0,0.0,66,0.00,,---,0.00,VWS V14.01,2013-02-04 12:41:00,
2013-02-04 07:46:00,21.4,11.8,30.10,SW,218,0.0,0.0,66,0.00,,---,0.00,VWS V14.01,2013-02-04 12:46:00,
2013-02-04 07:51:00,21.3,12.4,30.10,SW,218,0.0,1.0,68,0.00,,---,0.00,VWS V14.01,2013-02-04 12:51:00,
2013-02-04 07:56:00,21.3,12.7,30.10,SW,218,0.0,1.0,69,0.00,,---,0.00,VWS V14.01,2013-02-04 12:56:00,
2013-02-04 08:01:00,21.3,13.1,30.11,SW,218,1.0,1.0,70,0.00,,---,0.00,VWS V14.01,2013-02-04 13:01:00,
2013-02-04 08:06:00,21.3,13.4,30.11,WNW,302,1.0,5.0,71,0.00,,---,0.00,VWS V14.01,2013-02-04 13:06:00,
2013-02-04 08:11:00,21.3,13.4,30.11,WNW,302,0.0,5.0,71,0.00,,---,0.00,VWS V14.01,2013-02-04 13:11:00,
2013-02-04 08:16:00,21.5,13.9,30.11,WNW,302,1.0,5.0,72,0.00,,---,0.00,VWS V14.01,2013-02-04 13:16:00,
2013-02-04 08:21:00,21.8,14.2,30.12,WNW,302,2.0,5.0,72,0.00,,---,0.00,VWS V14.01,2013-02-04 13:21:00,
2013-02-04 08:26:00,22.2,14.2,30.12,WNW,302,0.0,5.0,71,0.00,,---,0.00,VWS V14.01,2013-02-04 13:26:00,
2013-02-04 08:31:00,22.5,14.5,30.12,WNW,302,0.0,1.0,71,0.00,,---,0.00,VWS V14.01,2013-02-04 13:31:00,
2013-02-04 08:36:00,22.8,14.5,30.11,WNW,302,0.0,1.0,70,0.00,,---,0.00,VWS V14.01,2013-02-04 13:36:00,
2013-02-04 08:41:00,23.1,14.8,30.12,WNW,302,0.0,1.0,70,0.00,,---,0.00,VWS V14.01,2013-02-04 13:41:00,
2013-02-04 08:46:00,23.6,14.9,30.12,WNW,302,0.0,1.0,69,0.00,,---,0.00,VWS V14.01,2013-02-04 13:46:00,
2013-02-04 08:51:00,24.0,15.0,30.12,WNW,302,0.0,1.0,68,0.00,,---,0.00,VWS V14.01,2013-02-04 13:51:00,
2013-02-04 08:56:00,24.4,14.7,30.12,WNW,302,0.0,2.0,66,0.00,,---,0.00,VWS V14.01,2013-02-04 13:56:00,
2013-02-04 09:01:00,24.7,15.0,30.13,WNW,302,1.0,1.0,66,0.00,,---,0.00,VWS V14.01,2013-02-04 14:01:00,
2013-02-04 09:06:00,24.9,14.8,30.12,WNW,302,0.0,3.0,65,0.00,,---,0.00,VWS V14.01,2013-02-04 14:06:00,
2013-02-04 09:11:00,25.2,14.8,30.12,WNW,302,0.0,3.0,64,0.00,,---,0.00,VWS V14.01,2013-02-04 14:11:00,
2013-02-04 09:16:00,25.4,14.9,30.12,WNW,302,0.0,3.0,64,0.00,,---,0.00,VWS V14.01,2013-02-04 14:16:00,
2013-02-04 09:21:00,25.6,14.8,30.12,WNW,302,2.0,3.0,63,0.00,,---,0.00,VWS V14.01,2013-02-04 14:21:00,
2013-02-04 09:26:00,26.0,14.8,30.12,WNW,302,0.0,3.0,62,0.00,,---,0.00,VWS V14.01,2013-02-04 14:26:00,
2013-02-04 09:31:00,26.6,15.0,30.12,WNW,302,1.0,1.0,61,0.00,,---,0.00,VWS V14.01,2013-02-04 14:31:00,
2013-02-04 09:36:00,27.2,15.6,30.11,WNW,302,0.0,2.0,61,0.00,,---,0.00,VWS V14.01,2013-02-04 14:36:00,
2013-02-04 09:41:00,27.7,15.6,30.11,WNW,302,0.0,2.0,60,0.00,,---,0.00,VWS V14.01,2013-02-04 14:41:00,
2013-02-04 09:46:00,28.3,16.2,30.11,WNW,302,1.0,2.0,60,0.00,,---,0.00,VWS V14.01,2013-02-04 14:46:00,
2013-02-04 09:51:00,28.7,15.8,30.11,WNW,302,0.0,2.0,58,0.00,,---,0.00,VWS V14.01,2013-02-04 14:51:00,
2013-02-04 09:56:00,29.1,16.2,30.11,NW,306,2.0,3.0,58,0.00,,---,0.00,VWS V14.01,2013-02-04 14:56:00,
2013-02-04 10:01:00,29.5,16.2,30.10,NW,306,1.0,2.0,57,0.00,,---,0.00,VWS V14.01,2013-02-04 15:01:00,
2013-02-04 10:06:00,29.9,15.7,30.10,ESE,110,0.0,4.0,55,0.00,,---,0.00,VWS V14.01,2013-02-04 15:06:00,
2013-02-04 10:11:00,30.3,16.5,30.10,ESE,110,0.0,4.0,56,0.00,,---,0.00,VWS V14.01,2013-02-04 15:11:00,
2013-02-04 10:16:00,30.9,16.6,30.09,SE,126,1.0,4.0,55,0.00,,---,0.00,VWS V14.01,2013-02-04 15:16:00,
2013-02-04 10:20:00,31.4,16.3,30.09,SE,126,1.0,4.0,53,0.00,,---,0.00,VWS V14.01,2013-02-04 15:20:00,
2013-02-04 10:25:00,31.5,15.9,30.09,South,169,3.0,5.0,52,0.00,,---,0.00,VWS V14.01,2013-02-04 15:25:00,
2013-02-04 10:30:00,31.7,16.1,30.09,SSW,201,2.0,2.0,52,0.00,,---,0.00,VWS V14.01,2013-02-04 15:30:00,
2013-02-04 10:35:00,32.0,15.9,30.09,SW,215,3.0,6.0,51,0.00,,---,0.00,VWS V14.01,2013-02-04 15:35:00,
2013-02-04 10:40:00,32.0,15.5,30.09,SW,225,0.0,6.0,50,0.00,,---,0.00,VWS V14.01,2013-02-04 15:40:00,
2013-02-04 10:45:00,32.4,15.9,30.09,South,191,13.0,13.0,50,0.00,,---,0.00,VWS V14.01,2013-02-04 15:45:00,
2013-02-04 10:50:00,32.5,15.0,30.08,SW,225,3.0,14.0,48,0.00,,---,0.00,VWS V14.01,2013-02-04 15:50:00,
2013-02-04 10:55:00,32.6,15.6,30.08,West,278,3.0,14.0,49,0.00,,---,0.00,VWS V14.01,2013-02-04 15:55:00,
2013-02-04 11:00:00,32.8,15.3,30.08,SW,223,4.0,4.0,48,0.00,,---,0.00,VWS V14.01,2013-02-04 16:00:00,
2013-02-04 11:05:00,33.0,15.5,30.09,WSW,240,4.0,12.0,48,0.00,,---,0.00,VWS V14.01,2013-02-04 16:05:00,
2013-02-04 11:10:00,33.2,15.6,30.09,SW,223,3.0,12.0,48,0.00,,---,0.00,VWS V14.01,2013-02-04 16:10:00,
2013-02-04 11:15:00,33.0,15.5,30.09,WSW,257,4.0,12.0,48,0.00,,---,0.00,VWS V14.01,2013-02-04 16:15:00,
2013-02-04 11:20:00,33.0,15.5,30.08,SW,228,6.0,12.0,48,0.00,,---,0.00,VWS V14.01,2013-02-04 16:20:00,
2013-02-04 11:25:00,33.2,15.2,30.08,SSW,193,7.0,12.0,47,0.00,,---,0.00,VWS V14.01,2013-02-04 16:25:00,
2013-02-04 11:30:00,33.4,15.4,30.07,South,187,2.0,4.0,47,0.00,,---,0.00,VWS V14.01,2013-02-04 16:30:00,
2013-02-04 11:35:00,33.7,15.6,30.06,SW,223,7.0,9.0,47,0.00,,---,0.00,VWS V14.01,2013-02-04 16:35:00,
2013-02-04 11:40:00,34.2,16.6,30.06,South,190,2.0,11.0,48,0.00,,---,0.00,VWS V14.01,2013-02-04 16:40:00,
2013-02-04 11:45:00,34.4,16.3,30.07,NW,304,1.0,11.0,47,0.00,,---,0.00,VWS V14.01,2013-02-04 16:45:00,
2013-02-04 11:50:00,34.4,15.8,30.06,SW,234,3.0,11.0,46,0.00,,---,0.00,VWS V14.01,2013-02-04 16:50:00,
2013-02-04 11:55:00,34.4,15.8,30.06,South,191,6.0,11.0,46,0.00,,---,0.00,VWS V14.01,2013-02-04 16:55:00,
2013-02-04 12:00:00,34.4,16.3,30.06,SSW,197,7.0,11.0,47,0.00,,---,0.00,VWS V14.01,2013-02-04 17:00:00,
2013-02-04 12:05:00,34.4,16.3,30.06,SSW,205,12.0,12.0,47,0.00,,---,0.00,VWS V14.01,2013-02-04 17:05:00,
2013-02-04 12:10:00,34.4,16.3,30.06,SSW,195,3.0,13.0,47,0.00,,---,0.00,VWS V14.01,2013-02-04 17:10:00,
2013-02-04 12:15:00,34.3,15.7,30.05,South,175,3.0,13.0,46,0.00,,---,0.00,VWS V14.01,2013-02-04 17:15:00,
2013-02-04 12:20:00,34.2,15.6,30.05,South,179,5.0,13.0,46,0.00,,---,0.00,VWS V14.01,2013-02-04 17:20:00,
2013-02-04 12:25:00,34.1,16.0,30.05,SW,220,2.0,13.0,47,0.00,,---,0.00,VWS V14.01,2013-02-04 17:25:00,
2013-02-04 12:30:00,34.3,16.2,30.04,SW,225,3.0,13.0,47,0.00,,---,0.00,VWS V14.01,2013-02-04 17:30:00,
2013-02-04 12:35:00,34.4,16.8,30.04,WSW,252,3.0,10.0,48,0.00,,---,0.00,VWS V14.01,2013-02-04 17:35:00,
2013-02-04 12:40:00,34.4,16.8,30.04,SW,221,3.0,12.0,48,0.00,,---,0.00,VWS V14.01,2013-02-04 17:40:00,
2013-02-04 12:45:00,34.4,16.8,30.03,SW,226,9.0,12.0,48,0.00,,---,0.00,VWS V14.01,2013-02-04 17:45:00,
2013-02-04 12:50:00,34.4,16.3,30.03,SW,222,8.0,12.0,47,0.00,,---,0.00,VWS V14.01,2013-02-04 17:50:00,
2013-02-04 12:55:00,34.5,16.9,30.03,South,186,6.0,12.0,48,0.00,,---,0.00,VWS V14.01,2013-02-04 17:55:00,
2013-02-04 13:00:00,34.8,17.1,30.02,WSW,244,6.0,12.0,48,0.00,,---,0.00,VWS V14.01,2013-02-04 18:00:00,
2013-02-04 13:05:00,34.7,17.0,30.02,SW,232,4.0,10.0,48,0.00,,---,0.00,VWS V14.01,2013-02-04 18:05:00,
2013-02-04 13:10:00,35.0,17.8,30.02,SW,223,3.0,10.0,49,0.00,,---,0.00,VWS V14.01,2013-02-04 18:10:00,
2013-02-04 13:15:00,35.3,18.1,30.02,SW,223,3.0,10.0,49,0.00,,---,0.00,VWS V14.01,2013-02-04 18:15:00,
2013-02-04 13:20:00,35.6,17.9,30.01,SW,217,3.0,10.0,48,0.00,,---,0.00,VWS V14.01,2013-02-04 18:20:00,
2013-02-04 13:25:00,35.8,18.0,30.01,WSW,250,2.0,10.0,48,0.00,,---,0.00,VWS V14.01,2013-02-04 18:25:00,
2013-02-04 13:30:00,35.7,18.0,30.01,WSW,243,7.0,10.0,48,0.00,,---,0.00,VWS V14.01,2013-02-04 18:30:00,
2013-02-04 13:35:00,35.6,17.9,30.01,WSW,251,2.0,7.0,48,0.00,,---,0.00,VWS V14.01,2013-02-04 18:35:00,
2013-02-04 13:40:00,35.8,18.0,30.00,West,271,8.0,9.0,48,0.00,,---,0.00,VWS V14.01,2013-02-04 18:40:00,
2013-02-04 13:45:00,36.0,18.2,30.00,SW,222,1.0,9.0,48,0.00,,---,0.00,VWS V14.01,2013-02-04 18:45:00,
2013-02-04 13:50:00,35.9,18.1,30.00,SW,217,4.0,9.0,48,0.00,,---,0.00,VWS V14.01,2013-02-04 18:50:00,
2013-02-04 13:55:00,35.8,18.0,29.99,West,262,3.0,9.0,48,0.00,,---,0.00,VWS V14.01,2013-02-04 18:55:00,
2013-02-04 14:00:00,35.7,18.0,29.99,SW,229,5.0,9.0,48,0.00,,---,0.00,VWS V14.01,2013-02-04 19:00:00,
2013-02-04 14:05:00,35.8,18.5,29.99,SW,225,3.0,9.0,49,0.00,,---,0.00,VWS V14.01,2013-02-04 19:05:00,
2013-02-04 14:10:00,36.0,18.7,29.99,South,186,0.0,9.0,49,0.00,,---,0.00,VWS V14.01,2013-02-04 19:10:00,
2013-02-04 14:15:00,36.3,19.0,29.99,SSW,207,4.0,9.0,49,0.00,,---,0.00,VWS V14.01,2013-02-04 19:15:00,
2013-02-04 14:20:00,36.7,19.4,29.99,West,263,4.0,9.0,49,0.00,,---,0.00,VWS V14.01,2013-02-04 19:20:00,
2013-02-04 14:25:00,37.0,19.1,29.99,WSW,249,5.0,9.0,48,0.00,,---,0.00,VWS V14.01,2013-02-04 19:25:00,
2013-02-04 14:30:00,37.3,19.4,29.99,SW,229,1.0,9.0,48,0.00,,---,0.00,VWS V14.01,2013-02-04 19:30:00,
2013-02-04 14:35:00,37.4,19.0,29.98,WSW,255,1.0,9.0,47,0.00,,---,0.00,VWS V14.01,2013-02-04 19:35:00,
2013-02-04 14:40:00,37.3,19.9,29.98,South,186,1.0,9.0,49,0.00,,---,0.00,VWS V14.01,2013-02-04 19:40:00,
2013-02-04 14:45:00,37.3,19.4,29.98,WSW,250,5.0,9.0,48,0.00,,---,0.00,VWS V14.01,2013-02-04 19:45:00,
2013-02-04 14:50:00,37.1,19.7,29.98,WSW,250,9.0,10.0,49,0.00,,---,0.00,VWS V14.01,2013-02-04 19:50:00,
2013-02-04 14:55:00,36.8,19.5,29.97,West,271,1.0,10.0,49,0.00,,---,0.00,VWS V14.01,2013-02-04 19:55:00,
2013-02-04 15:00:00,36.8,19.9,29.97,WSW,247,4.0,10.0,50,0.00,,---,0.00,VWS V14.01,2013-02-04 20:00:00,
2013-02-04 15:05:00,36.9,20.0,29.97,SSW,199,2.0,9.0,50,0.00,,---,0.00,VWS V14.01,2013-02-04 20:05:00,
2013-02-04 15:10:00,36.9,20.0,29.98,WSW,252,2.0,9.0,50,0.00,,---,0.00,VWS V14.01,2013-02-04 20:10:00,
2013-02-04 15:15:00,37.1,20.2,29.98,West,263,4.0,9.0,50,0.00,,---,0.00,VWS V14.01,2013-02-04 20:15:00,
2013-02-04 15:20:00,37.3,20.4,29.97,SW,232,8.0,9.0,50,0.00,,---,0.00,VWS V14.01,2013-02-04 20:20:00,
2013-02-04 15:25:00,37.4,20.5,29.97,WSW,257,7.0,10.0,50,0.00,,---,0.00,VWS V14.01,2013-02-04 20:25:00,
2013-02-04 15:30:00,37.8,20.8,29.97,WSW,248,0.0,10.0,50,0.00,,---,0.00,VWS V14.01,2013-02-04 20:30:00,
2013-02-04 15:35:00,38.0,20.5,29.97,WSW,248,5.0,9.0,49,0.00,,---,0.00,VWS V14.01,2013-02-04 20:35:00,
2013-02-04 15:40:00,38.2,21.2,29.97,SW,227,2.0,9.0,50,0.00,,---,0.00,VWS V14.01,2013-02-04 20:40:00,
2013-02-04 15:45:00,38.2,20.7,29.97,West,265,3.0,9.0,49,0.00,,---,0.00,VWS V14.01,2013-02-04 20:45:00,
2013-02-04 15:50:00,38.4,20.9,29.96,SW,227,5.0,9.0,49,0.00,,---,0.00,VWS V14.01,2013-02-04 20:50:00,
2013-02-04 15:55:00,38.3,20.8,29.96,WSW,249,4.0,10.0,49,0.00,,---,0.00,VWS V14.01,2013-02-04 20:55:00,
2013-02-04 16:00:00,38.1,20.6,29.96,SW,226,2.0,10.0,49,0.00,,---,0.00,VWS V14.01,2013-02-04 21:00:00,
2013-02-04 16:05:00,38.0,21.0,29.96,West,267,3.0,7.0,50,0.00,,---,0.00,VWS V14.01,2013-02-04 21:05:00,
2013-02-04 16:10:00,38.0,21.5,29.96,WSW,248,1.0,7.0,51,0.00,,---,0.00,VWS V14.01,2013-02-04 21:10:00,
2013-02-04 16:15:00,38.1,21.6,29.96,WSW,242,3.0,7.0,51,0.00,,---,0.00,VWS V14.01,2013-02-04 21:15:00,
2013-02-04 16:20:00,38.1,21.6,29.96,WSW,237,3.0,7.0,51,0.00,,---,0.00,VWS V14.01,2013-02-04 21:20:00,
2013-02-04 16:25:00,37.9,21.4,29.96,WSW,240,2.0,7.0,51,0.00,,---,0.00,VWS V14.01,2013-02-04 21:25:00,
2013-02-04 16:30:00,37.8,21.8,29.96,WNW,291,4.0,7.0,52,0.00,,---,0.00,VWS V14.01,2013-02-04 21:30:00,
2013-02-04 16:35:00,37.9,21.4,29.95,WSW,251,3.0,5.0,51,0.00,,---,0.00,VWS V14.01,2013-02-04 21:35:00,
2013-02-04 16:40:00,37.8,21.8,29.95,West,270,1.0,5.0,52,0.00,,---,0.00,VWS V14.01,2013-02-04 21:40:00,
2013-02-04 16:45:00,38.0,22.0,29.95,West,269,1.0,5.0,52,0.00,,---,0.00,VWS V14.01,2013-02-04 21:45:00,
2013-02-04 16:50:00,38.3,21.8,29.95,West,259,3.0,5.0,51,0.00,,---,0.00,VWS V14.01,2013-02-04 21:50:00,
2013-02-04 16:55:00,38.3,21.8,29.95,WSW,254,1.0,6.0,51,0.00,,---,0.00,VWS V14.01,2013-02-04 21:55:00,
2013-02-04 17:00:00,38.0,22.0,29.95,West,277,2.0,6.0,52,0.00,,---,0.00,VWS V14.01,2013-02-04 22:00:00,
2013-02-04 17:04:00,37.7,21.7,29.96,WNW,292,4.0,4.0,52,0.00,,---,0.00,VWS V14.01,2013-02-04 22:04:00,
2013-02-04 17:09:00,37.3,21.8,29.96,West,263,0.0,4.0,53,0.00,,---,0.00,VWS V14.01,2013-02-04 22:09:00,
2013-02-04 17:14:00,37.2,21.7,29.96,West,262,2.0,4.0,53,0.00,,---,0.00,VWS V14.01,2013-02-04 22:14:00,
2013-02-04 17:19:00,37.0,21.9,29.95,West,261,0.0,5.0,54,0.00,,---,0.00,VWS V14.01,2013-02-04 22:19:00,
2013-02-04 17:24:00,36.9,21.8,29.95,West,261,1.0,5.0,54,0.00,,---,0.00,VWS V14.01,2013-02-04 22:24:00,
2013-02-04 17:29:00,36.6,21.5,29.96,WSW,244,0.0,5.0,54,0.00,,---,0.00,VWS V14.01,2013-02-04 22:29:00,
2013-02-04 17:34:00,36.5,21.9,29.95,SW,229,1.0,5.0,55,0.00,,---,0.00,VWS V14.01,2013-02-04 22:34:00,
2013-02-04 17:39:00,36.3,21.7,29.96,SW,229,1.0,5.0,55,0.00,,---,0.00,VWS V14.01,2013-02-04 22:39:00,
2013-02-04 17:44:00,36.2,21.6,29.95,SW,229,0.0,5.0,55,0.00,,---,0.00,VWS V14.01,2013-02-04 22:44:00,
2013-02-04 17:49:00,36.2,22.0,29.95,SW,229,0.0,5.0,56,0.00,,---,0.00,VWS V14.01,2013-02-04 22:49:00,
2013-02-04 17:54:00,36.1,22.4,29.95,SW,229,1.0,5.0,57,0.00,,---,0.00,VWS V14.01,2013-02-04 22:54:00,
2013-02-04 17:59:00,36.1,22.4,29.95,SW,229,0.0,5.0,57,0.00,,---,0.00,VWS V14.01,2013-02-04 22:59:00,
2013-02-04 18:04:00,36.0,22.3,29.95,South,173,1.0,2.0,57,0.00,,---,0.00,VWS V14.01,2013-02-04 23:04:00,
2013-02-04 18:09:00,35.9,22.2,29.95,South,174,0.0,2.0,57,0.00,,---,0.00,VWS V14.01,2013-02-04 23:09:00,
2013-02-04 18:14:00,35.7,22.4,29.95,South,174,1.0,3.0,58,0.00,,---,0.00,VWS V14.01,2013-02-04 23:14:00,
2013-02-04 18:19:00,35.5,22.2,29.95,South,173,1.0,3.0,58,0.00,,---,0.00,VWS V14.01,2013-02-04 23:19:00,
2013-02-04 18:24:00,35.3,22.0,29.95,SE,146,2.0,3.0,58,0.00,,---,0.00,VWS V14.01,2013-02-04 23:24:00,
2013-02-04 18:29:00,35.1,22.6,29.96,SE,146,1.0,3.0,60,0.00,,---,0.00,VWS V14.01,2013-02-04 23:29:00,
2013-02-04 18:34:00,34.8,22.3,29.96,SE,146,0.0,2.0,60,0.00,,---,0.00,VWS V14.01,2013-02-04 23:34:00,
2013-02-04 18:39:00,34.7,22.6,29.96,SE,146,0.0,2.0,61,0.00,,---,0.00,VWS V14.01,2013-02-04 23:39:00,
2013-02-04 18:44:00,34.4,22.4,29.97,SE,146,0.0,2.0,61,0.00,,---,0.00,VWS V14.01,2013-02-04 23:44:00,
2013-02-04 18:49:00,34.4,22.4,29.97,SE,146,1.0,2.0,61,0.00,,---,0.00,VWS V14.01,2013-02-04 23:49:00,
2013-02-04 18:54:00,34.4,22.4,29.97,SE,146,1.0,2.0,61,0.00,,---,0.00,VWS V14.01,2013-02-04 23:54:00,
2013-02-04 18:59:00,34.6,22.5,29.96,SE,146,0.0,2.0,61,0.00,,---,0.00,VWS V14.01,2013-02-04 23:59:00,
2013-02-04 19:04:00,34.8,22.3,29.97,SE,146,0.0,1.0,60,0.00,,---,0.00,VWS V14.01,2013-02-05 00:04:00,
2013-02-04 19:09:00,34.8,23.1,29.96,SE,146,0.0,1.0,62,0.00,,---,0.00,VWS V14.01,2013-02-05 00:09:00,
2013-02-04 19:14:00,34.5,23.2,29.95,SE,146,1.0,2.0,63,0.00,,---,0.00,VWS V14.01,2013-02-05 00:14:00,
2013-02-04 19:19:00,34.4,22.7,29.95,SE,139,3.0,5.0,62,0.00,,---,0.00,VWS V14.01,2013-02-05 00:19:00,
2013-02-04 19:24:00,34.4,22.7,29.95,SE,139,2.0,5.0,62,0.00,,---,0.00,VWS V14.01,2013-02-05 00:24:00,
2013-02-04 19:29:00,34.4,22.7,29.95,SE,137,0.0,5.0,62,0.00,,---,0.00,VWS V14.01,2013-02-05 00:29:00,
2013-02-04 19:34:00,34.4,23.1,29.95,SE,137,0.0,2.0,63,0.00,,---,0.00,VWS V14.01,2013-02-05 00:34:00,
2013-02-04 19:39:00,34.4,23.5,29.95,SE,137,0.0,2.0,64,0.00,,---,0.00,VWS V14.01,2013-02-05 00:39:00,
2013-02-04 19:44:00,34.4,23.5,29.95,SE,137,1.0,2.0,64,0.00,,---,0.00,VWS V14.01,2013-02-05 00:44:00,
2013-02-04 19:49:00,34.2,23.3,29.95,SE,137,0.0,2.0,64,0.00,,---,0.00,VWS V14.01,2013-02-05 00:49:00,
2013-02-04 19:54:00,34.0,23.1,29.95,SE,137,0.0,2.0,64,0.00,,---,0.00,VWS V14.01,2013-02-05 00:54:00,
2013-02-04 19:59:00,33.9,23.4,29.95,SE,137,1.0,2.0,65,0.00,,---,0.00,VWS V14.01,2013-02-05 00:59:00,
2013-02-04 20:04:00,33.7,23.6,29.94,SE,137,0.0,2.0,66,0.00,,---,0.00,VWS V14.01,2013-02-05 01:04:00,
2013-02-04 20:09:00,33.5,23.4,29.94,SE,137,0.0,2.0,66,0.00,,---,0.00,VWS V14.01,2013-02-05 01:09:00,
2013-02-04 20:14:00,33.5,23.4,29.94,SE,137,0.0,2.0,66,0.00,,---,0.00,VWS V14.01,2013-02-05 01:14:00,
2013-02-04 20:19:00,33.5,23.4,29.94,SE,137,0.0,2.0,66,0.00,,---,0.00,VWS V14.01,2013-02-05 01:19:00,
2013-02-04 20:24:00,33.6,23.8,29.94,SE,137,0.0,2.0,67,0.00,,---,0.00,VWS V14.01,2013-02-05 01:24:00,
2013-02-04 20:29:00,33.4,24.0,29.94,SE,137,0.0,2.0,68,0.00,,---,0.00,VWS V14.01,2013-02-05 01:29:00,
2013-02-04 20:34:00,33.2,24.1,29.94,SE,137,1.0,1.0,69,0.00,,---,0.00,VWS V14.01,2013-02-05 01:34:00,
2013-02-04 20:39:00,33.2,24.1,29.94,SE,137,0.0,2.0,69,0.00,,---,0.00,VWS V14.01,2013-02-05 01:39:00,
2013-02-04 20:44:00,33.2,24.1,29.94,SE,137,2.0,3.0,69,0.00,,---,0.00,VWS V14.01,2013-02-05 01:44:00,
2013-02-04 20:49:00,33.3,23.9,29.94,SE,137,1.0,3.0,68,0.00,,---,0.00,VWS V14.01,2013-02-05 01:49:00,
2013-02-04 20:54:00,33.6,23.8,29.94,East,101,2.0,3.0,67,0.00,,---,0.00,VWS V14.01,2013-02-05 01:54:00,
2013-02-04 20:59:00,34.3,23.8,29.94,NE,40,3.0,5.0,65,0.00,,---,0.00,VWS V14.01,2013-02-05 01:59:00,
2013-02-04 21:04:00,34.8,23.9,29.94,NE,40,0.0,3.0,64,0.00,,---,0.00,VWS V14.01,2013-02-05 02:04:00,
2013-02-04 21:09:00,35.1,23.8,29.94,NE,40,0.0,3.0,63,0.00,,---,0.00,VWS V14.01,2013-02-05 02:09:00,
2013-02-04 21:14:00,35.6,23.9,29.94,West,259,5.0,5.0,62,0.00,,---,0.00,VWS V14.01,2013-02-05 02:14:00,
2013-02-04 21:19:00,36.7,24.1,29.93,WSW,242,4.0,7.0,60,0.00,,---,0.00,VWS V14.01,2013-02-05 02:19:00,
2013-02-04 21:24:00,37.4,24.0,29.93,SW,220,2.0,7.0,58,0.00,,---,0.00,VWS V14.01,2013-02-05 02:24:00,
2013-02-04 21:29:00,37.7,23.9,29.93,SSW,205,0.0,7.0,57,0.00,,---,0.00,VWS V14.01,2013-02-05 02:29:00,
2013-02-04 21:34:00,37.8,24.0,29.93,SSW,205,0.0,3.0,57,0.00,,---,0.00,VWS V14.01,2013-02-05 02:34:00,
2013-02-04 21:39:00,37.7,24.3,29.93,SSW,205,0.0,3.0,58,0.00,,---,0.00,VWS V14.01,2013-02-05 02:39:00,
2013-02-04 21:44:00,37.3,24.7,29.93,SSW,205,0.0,3.0,60,0.00,,---,0.00,VWS V14.01,2013-02-05 02:44:00,
2013-02-04 21:49:00,36.8,24.6,29.93,SSW,205,0.0,3.0,61,0.00,,---,0.00,VWS V14.01,2013-02-05 02:49:00,
2013-02-04 21:54:00,36.2,24.5,29.93,SSW,205,0.0,3.0,62,0.00,,---,0.00,VWS V14.01,2013-02-05 02:54:00,
2013-02-04 21:59:00,35.6,23.9,29.92,SSW,205,1.0,3.0,62,0.00,,---,0.00,VWS V14.01,2013-02-05 02:59:00,
2013-02-04 22:04:00,35.2,23.9,29.92,SSW,205,2.0,2.0,63,0.00,,---,0.00,VWS V14.01,2013-02-05 03:04:00,
2013-02-04 22:09:00,34.9,24.0,29.92,SSW,205,2.0,2.0,64,0.00,,---,0.00,VWS V14.01,2013-02-05 03:09:00,
2013-02-04 22:14:00,34.4,23.9,29.92,SSW,205,0.0,2.0,65,0.00,,---,0.00,VWS V14.01,2013-02-05 03:14:00,
2013-02-04 22:19:00,34.1,24.0,29.92,SSW,205,0.0,2.0,66,0.00,,---,0.00,VWS V14.01,2013-02-05 03:19:00,
2013-02-04 22:24:00,33.8,23.7,29.92,SSW,205,0.0,2.0,66,0.00,,---,0.00,VWS V14.01,2013-02-05 03:24:00,
2013-02-04 22:29:00,33.6,23.5,29.92,SSW,205,0.0,2.0,66,0.00,,---,0.00,VWS V14.01,2013-02-05 03:29:00,
2013-02-04 22:34:00,33.4,23.6,29.92,SSW,205,0.0,0.0,67,0.00,,---,0.00,VWS V14.01,2013-02-05 03:34:00,
2013-02-04 22:39:00,33.3,23.5,29.92,SSW,205,1.0,2.0,67,0.00,,---,0.00,VWS V14.01,2013-02-05 03:39:00,
2013-02-04 22:44:00,33.1,23.7,29.92,SSW,205,1.0,2.0,68,0.00,,---,0.00,VWS V14.01,2013-02-05 03:44:00,
2013-02-04 22:49:00,32.8,23.4,29.91,SSW,205,0.0,2.0,68,0.00,,---,0.00,VWS V14.01,2013-02-05 03:49:00,
2013-02-04 22:54:00,32.5,23.5,29.91,SSW,199,2.0,2.0,69,0.00,,---,0.00,VWS V14.01,2013-02-05 03:54:00,
2013-02-04 22:59:00,32.7,23.7,29.91,East,96,0.0,3.0,69,0.00,,---,0.00,VWS V14.01,2013-02-05 03:59:00,
2013-02-04 23:04:00,33.0,24.0,29.91,SE,139,0.0,2.0,69,0.00,,---,0.00,VWS V14.01,2013-02-05 04:04:00,
2013-02-04 23:09:00,33.1,24.0,29.91,West,271,1.0,2.0,69,0.00,,---,0.00,VWS V14.01,2013-02-05 04:09:00,
2013-02-04 23:14:00,32.4,23.7,29.91,West,271,0.0,2.0,70,0.00,,---,0.00,VWS V14.01,2013-02-05 04:14:00,
2013-02-04 23:19:00,31.9,23.6,29.91,West,271,0.0,3.0,71,0.00,,---,0.00,VWS V14.01,2013-02-05 04:19:00,
2013-02-04 23:24:00,31.6,23.6,29.91,West,271,0.0,3.0,72,0.00,,---,0.00,VWS V14.01,2013-02-05 04:24:00,
2013-02-04 23:29:00,31.5,23.9,29.91,West,271,2.0,3.0,73,0.00,,---,0.00,VWS V14.01,2013-02-05 04:29:00,
2013-02-04 23:34:00,31.4,24.1,29.91,West,271,0.0,0.0,74,0.00,,---,0.00,VWS V14.01,2013-02-05 04:34:00,
2013-02-04 23:39:00,31.5,24.2,29.91,West,271,1.0,3.0,74,0.00,,---,0.00,VWS V14.01,2013-02-05 04:39:00,
2013-02-04 23:44:00,31.9,24.9,29.91,West,271,1.0,3.0,75,0.00,,---,0.00,VWS V14.01,2013-02-05 04:44:00,
2013-02-04 23:49:00,32.5,25.5,29.91,West,271,0.0,3.0,75,0.00,,---,0.00,VWS V14.01,2013-02-05 04:49:00,
2013-02-04 23:54:00,32.9,25.5,29.90,West,271,0.0,3.0,74,0.00,,---,0.00,VWS V14.01,2013-02-05 04:54:00,
2013-02-04 23:59:00,33.0,25.6,29.90,West,271,0.0,3.0,74,0.00,,---,0.00,VWS V14.01,2013-02-05 04:59:00,